createdAt,value
2018-03-25T00:00:32.737Z,33.65
2018-03-25T00:01:07.149Z,33.15
2018-03-25T00:01:41.067Z,35.08
2018-03-25T00:02:14.934Z,32.58
2018-03-25T00:02:49.029Z,34.60
2018-03-25T00:03:23.336Z,32.65
2018-03-25T00:03:57.551Z,32.63
2018-03-25T00:04:31.426Z,35.80
2018-03-25T00:05:05.313Z,33.30
2018-03-25T00:05:39.184Z,36.83
2018-03-25T00:06:13.325Z,35.78
2018-03-25T00:06:47.258Z,33.38
2018-03-25T00:07:21.121Z,33.30
2018-03-25T00:07:54.996Z,32.60
2018-03-25T00:08:29.009Z,33.33
2018-03-25T00:09:02.871Z,31.35
2018-03-25T00:09:36.742Z,33.22
2018-03-25T00:10:11.622Z,33.88
2018-03-25T00:10:45.716Z,32.00
2018-03-25T00:11:19.586Z,33.00
2018-03-25T00:11:53.463Z,32.78
2018-03-25T00:12:27.402Z,33.80
2018-03-25T00:13:01.260Z,33.17
2018-03-25T00:13:35.118Z,34.30
2018-03-25T00:14:09.085Z,34.08
2018-03-25T00:14:43.107Z,33.17
2018-03-25T00:15:16.964Z,33.85
2018-03-25T00:15:51.078Z,33.25
2018-03-25T00:16:24.953Z,32.63
2018-03-25T00:16:58.883Z,33.75
2018-03-25T00:17:32.763Z,33.50
2018-03-25T00:18:06.777Z,31.98
2018-03-25T00:18:40.640Z,31.92
2018-03-25T00:19:14.649Z,34.70
2018-03-25T00:19:48.514Z,31.23
2018-03-25T00:20:22.377Z,33.95
2018-03-25T00:20:56.443Z,33.88
2018-03-25T00:21:30.449Z,34.40
2018-03-25T00:22:04.320Z,32.70
2018-03-25T00:22:38.322Z,34.53
2018-03-25T00:23:12.181Z,35.33
2018-03-25T00:23:46.277Z,34.78
2018-03-25T00:24:20.428Z,33.97
2018-03-25T00:24:54.285Z,33.80
2018-03-25T00:25:28.150Z,32.40
2018-03-25T00:26:02.114Z,33.40
2018-03-25T00:26:35.975Z,33.70
2018-03-25T00:27:09.854Z,35.03
2018-03-25T00:27:43.786Z,33.65
2018-03-25T00:28:17.758Z,31.83
2018-03-25T00:28:51.692Z,34.20
2018-03-25T00:29:25.541Z,33.28
2018-03-25T00:29:59.474Z,32.17
2018-03-25T00:30:33.351Z,34.95
2018-03-25T00:31:07.255Z,34.50
2018-03-25T00:31:41.377Z,35.58
2018-03-25T00:32:15.244Z,33.50
2018-03-25T00:32:49.117Z,33.50
2018-03-25T00:33:23.086Z,34.60
2018-03-25T00:33:57.059Z,34.17
2018-03-25T00:34:30.936Z,35.58
2018-03-25T00:35:04.809Z,34.10
2018-03-25T00:35:38.743Z,34.28
2018-03-25T00:36:12.637Z,32.60
2018-03-25T00:36:46.524Z,33.25
2018-03-25T00:37:20.377Z,34.00
2018-03-25T00:37:54.245Z,34.22
2018-03-25T00:38:28.133Z,33.60
2018-03-25T00:39:01.989Z,33.75
2018-03-25T00:39:36.121Z,34.35
2018-03-25T00:40:10.126Z,35.13
2018-03-25T00:40:44.230Z,35.38
2018-03-25T00:41:18.324Z,33.53
2018-03-25T00:41:52.314Z,35.50
2018-03-25T00:42:26.226Z,34.97
2018-03-25T00:43:00.114Z,35.45
2018-03-25T00:43:33.982Z,33.65
2018-03-25T00:44:08.090Z,34.65
2018-03-25T00:44:41.955Z,34.38
2018-03-25T00:45:15.988Z,34.20
2018-03-25T00:45:50.009Z,34.60
2018-03-25T00:46:23.994Z,34.67
2018-03-25T00:46:57.857Z,34.90
2018-03-25T00:47:31.876Z,33.40
2018-03-25T00:48:05.828Z,33.90
2018-03-25T00:48:39.642Z,33.75
2018-03-25T00:49:13.687Z,34.88
2018-03-25T00:49:47.555Z,35.72
2018-03-25T00:50:21.417Z,35.47
2018-03-25T00:50:55.271Z,35.47
2018-03-25T00:51:29.156Z,36.33
2018-03-25T00:52:03.128Z,35.25
2018-03-25T00:52:37.037Z,34.75
2018-03-25T00:53:10.915Z,34.28
2018-03-25T00:53:44.926Z,34.60
2018-03-25T00:54:18.781Z,34.50
2018-03-25T00:54:52.925Z,35.38
2018-03-25T00:55:26.784Z,34.10
2018-03-25T00:56:00.735Z,35.08
2018-03-25T00:56:34.975Z,35.17
2018-03-25T00:57:08.796Z,35.28
2018-03-25T00:57:42.813Z,35.97
2018-03-25T00:58:16.664Z,35.83
2018-03-25T00:58:50.544Z,36.80
2018-03-25T00:59:24.497Z,37.45
2018-03-25T00:59:58.489Z,34.17
2018-03-25T01:00:32.345Z,35.30
2018-03-25T01:01:12.860Z,33.28
2018-03-25T01:01:46.761Z,34.70
2018-03-25T01:02:20.616Z,35.63
2018-03-25T01:02:54.481Z,33.03
2018-03-25T01:03:28.352Z,32.08
2018-03-25T01:04:02.231Z,33.50
2018-03-25T01:04:36.094Z,34.83
2018-03-25T01:05:10.005Z,35.42
2018-03-25T01:05:44.114Z,34.80
2018-03-25T01:06:17.974Z,35.42
2018-03-25T01:06:52.010Z,33.42
2018-03-25T01:07:25.875Z,35.38
2018-03-25T01:08:00.106Z,33.97
2018-03-25T01:08:33.985Z,33.28
2018-03-25T01:09:08.196Z,33.38
2018-03-25T01:09:42.111Z,32.65
2018-03-25T01:10:15.964Z,34.40
2018-03-25T01:10:49.827Z,34.63
2018-03-25T01:11:23.687Z,33.70
2018-03-25T01:11:57.695Z,33.75
2018-03-25T01:12:31.558Z,35.42
2018-03-25T01:13:05.429Z,34.38
2018-03-25T01:13:39.767Z,33.15
2018-03-25T01:14:13.625Z,35.80
2018-03-25T01:14:47.490Z,33.85
2018-03-25T01:15:21.369Z,34.38
2018-03-25T01:16:01.147Z,33.30
2018-03-25T01:16:35.058Z,32.35
2018-03-25T01:17:08.940Z,35.78
2018-03-25T01:17:42.992Z,35.85
2018-03-25T01:18:16.851Z,33.67
2018-03-25T01:18:50.865Z,32.97
2018-03-25T01:19:24.735Z,36.05
2018-03-25T01:19:58.601Z,33.83
2018-03-25T01:20:32.754Z,33.15
2018-03-25T01:21:06.721Z,33.60
2018-03-25T01:21:40.598Z,34.47
2018-03-25T01:22:14.558Z,34.75
2018-03-25T01:22:48.438Z,32.80
2018-03-25T01:23:22.494Z,32.90
2018-03-25T01:23:56.340Z,35.15
2018-03-25T01:24:30.241Z,34.72
2018-03-25T01:25:04.150Z,33.78
2018-03-25T01:25:38.033Z,33.65
2018-03-25T01:26:12.120Z,34.80
2018-03-25T01:26:45.977Z,37.10
2018-03-25T01:27:19.903Z,38.10
2018-03-25T01:27:53.769Z,38.42
2018-03-25T01:28:27.650Z,38.88
2018-03-25T01:29:01.507Z,37.58
2018-03-25T01:29:35.481Z,37.15
2018-03-25T01:30:09.347Z,37.60
2018-03-25T01:30:43.285Z,37.15
2018-03-25T01:31:17.162Z,37.20
2018-03-25T01:31:51.074Z,37.08
2018-03-25T01:32:25.075Z,37.25
2018-03-25T01:32:58.965Z,38.70
2018-03-25T01:33:33.068Z,35.85
2018-03-25T01:34:07.166Z,35.10
2018-03-25T01:34:41.061Z,37.53
2018-03-25T01:35:14.949Z,39.85
2018-03-25T01:35:48.966Z,39.88
2018-03-25T01:36:22.827Z,39.13
2018-03-25T01:36:56.710Z,41.13
2018-03-25T01:37:30.655Z,37.85
2018-03-25T01:38:04.509Z,38.03
2018-03-25T01:38:38.628Z,37.38
2018-03-25T01:39:12.489Z,37.13
2018-03-25T01:39:46.470Z,38.33
2018-03-25T01:40:20.627Z,37.30
2018-03-25T01:40:54.846Z,36.83
2018-03-25T01:41:28.716Z,37.42
2018-03-25T01:42:02.622Z,37.70
2018-03-25T01:42:36.505Z,37.45
2018-03-25T01:43:10.377Z,36.70
2018-03-25T01:43:44.248Z,37.60
2018-03-25T01:44:18.211Z,36.25
2018-03-25T01:44:52.086Z,34.33
2018-03-25T01:45:25.996Z,34.15
2018-03-25T01:46:00.010Z,38.30
2018-03-25T01:46:33.994Z,37.50
2018-03-25T01:47:07.996Z,38.53
2018-03-25T01:47:41.997Z,35.72
2018-03-25T01:48:15.854Z,36.55
2018-03-25T01:48:49.989Z,39.00
2018-03-25T01:49:23.876Z,40.30
2018-03-25T01:49:57.746Z,40.28
2018-03-25T01:50:31.665Z,38.67
2018-03-25T01:51:05.662Z,39.28
2018-03-25T01:51:39.664Z,38.92
2018-03-25T01:52:13.662Z,36.75
2018-03-25T01:52:47.553Z,39.20
2018-03-25T01:53:21.539Z,37.58
2018-03-25T01:53:55.652Z,38.83
2018-03-25T01:54:29.641Z,37.30
2018-03-25T01:55:03.496Z,37.35
2018-03-25T01:55:37.577Z,37.60
2018-03-25T01:56:11.433Z,39.80
2018-03-25T01:56:45.452Z,37.63
2018-03-25T01:57:19.330Z,39.70
2018-03-25T01:57:53.229Z,38.50
2018-03-25T01:58:27.120Z,37.20
2018-03-25T01:59:00.990Z,37.85
2018-03-25T01:59:34.865Z,39.30
2018-03-25T02:00:08.803Z,37.70
2018-03-25T02:00:42.661Z,39.90
2018-03-25T02:01:16.538Z,37.83
2018-03-25T02:01:50.493Z,41.72
2018-03-25T02:02:24.386Z,39.63
2018-03-25T02:02:58.261Z,41.78
2018-03-25T02:03:32.390Z,39.33
2018-03-25T02:04:06.285Z,41.05
2018-03-25T02:04:40.170Z,38.88
2018-03-25T02:05:14.029Z,40.53
2018-03-25T02:05:48.064Z,39.60
2018-03-25T02:06:22.069Z,40.70
2018-03-25T02:06:55.932Z,39.42
2018-03-25T02:07:30.178Z,41.03
2018-03-25T02:08:04.058Z,40.20
2018-03-25T02:08:37.925Z,40.80
2018-03-25T02:09:11.954Z,40.92
2018-03-25T02:09:45.821Z,38.88
2018-03-25T02:10:19.745Z,39.47
2018-03-25T02:10:53.655Z,39.85
2018-03-25T02:11:27.498Z,41.10
2018-03-25T02:12:01.358Z,40.12
2018-03-25T02:12:35.225Z,41.72
2018-03-25T02:13:09.097Z,40.58
2018-03-25T02:13:43.113Z,41.13
2018-03-25T02:14:17.008Z,40.28
2018-03-25T02:14:50.866Z,38.35
2018-03-25T02:15:24.733Z,41.17
2018-03-25T02:15:58.607Z,82.88
2018-03-25T02:16:32.459Z,75.05
2018-03-25T02:17:06.322Z,69.47
2018-03-25T02:17:40.339Z,55.80
2018-03-25T02:18:14.214Z,46.42
2018-03-25T02:18:48.085Z,43.53
2018-03-25T02:19:21.963Z,40.08
2018-03-25T02:19:56.538Z,39.50
2018-03-25T02:20:30.618Z,41.35
2018-03-25T02:21:04.501Z,41.00
2018-03-25T02:21:38.987Z,41.72
2018-03-25T02:22:12.890Z,38.53
2018-03-25T02:22:47.435Z,41.45
2018-03-25T02:23:21.612Z,39.67
2018-03-25T02:23:55.464Z,38.10
2018-03-25T02:24:29.390Z,39.53
2018-03-25T02:25:03.314Z,41.67
2018-03-25T02:25:37.182Z,40.63
2018-03-25T02:26:11.060Z,41.20
2018-03-25T02:26:44.916Z,42.22
2018-03-25T02:27:18.779Z,38.38
2018-03-25T02:27:52.651Z,40.75
2018-03-25T02:28:26.549Z,39.22
2018-03-25T02:29:00.448Z,40.95
2018-03-25T02:29:34.297Z,40.67
2018-03-25T02:30:09.363Z,40.92
2018-03-25T02:30:44.233Z,40.30
2018-03-25T02:31:20.836Z,41.17
2018-03-25T02:31:56.539Z,38.60
2018-03-25T02:32:30.543Z,40.65
2018-03-25T02:33:04.467Z,41.53
2018-03-25T02:33:38.825Z,40.95
2018-03-25T02:34:13.352Z,40.63
2018-03-25T02:34:47.927Z,40.40
2018-03-25T02:35:22.206Z,42.58
2018-03-25T02:35:59.290Z,41.28
2018-03-25T02:36:33.730Z,41.25
2018-03-25T02:37:07.596Z,40.63
2018-03-25T02:37:42.762Z,42.40
2018-03-25T02:38:16.605Z,40.85
2018-03-25T02:38:50.503Z,40.53
2018-03-25T02:39:24.442Z,42.40
2018-03-25T02:39:58.249Z,39.00
2018-03-25T02:40:32.378Z,40.03
2018-03-25T02:41:06.472Z,41.50
2018-03-25T02:41:40.337Z,40.78
2018-03-25T02:42:14.224Z,43.05
2018-03-25T02:42:48.266Z,40.83
2018-03-25T02:43:22.137Z,40.50
2018-03-25T02:43:56.166Z,40.20
2018-03-25T02:44:30.217Z,39.58
2018-03-25T02:45:04.070Z,41.45
2018-03-25T02:45:37.934Z,39.90
2018-03-25T02:46:11.922Z,39.05
2018-03-25T02:46:45.785Z,41.33
2018-03-25T02:47:19.647Z,42.70
2018-03-25T02:47:53.641Z,39.38
2018-03-25T02:48:27.520Z,42.13
2018-03-25T02:49:01.529Z,42.65
2018-03-25T02:49:35.419Z,41.95
2018-03-25T02:50:09.275Z,40.70
2018-03-25T02:50:43.120Z,40.80
2018-03-25T02:51:17.002Z,40.63
2018-03-25T02:51:50.861Z,39.55
2018-03-25T02:52:24.735Z,42.88
2018-03-25T02:52:58.591Z,39.67
2018-03-25T02:53:32.467Z,42.03
2018-03-25T02:54:06.553Z,42.58
2018-03-25T02:54:40.457Z,39.33
2018-03-25T02:55:14.352Z,40.70
2018-03-25T02:55:48.208Z,41.35
2018-03-25T02:56:22.056Z,40.60
2018-03-25T02:56:55.982Z,41.45
2018-03-25T02:57:29.844Z,40.30
2018-03-25T02:58:03.905Z,41.45
2018-03-25T02:58:37.935Z,41.58
2018-03-25T02:59:11.838Z,42.78
2018-03-25T02:59:45.846Z,40.80
2018-03-25T03:00:19.720Z,42.35
2018-03-25T03:00:53.590Z,43.42
2018-03-25T03:01:27.525Z,42.47
2018-03-25T03:02:01.391Z,40.42
2018-03-25T03:02:35.268Z,41.33
2018-03-25T03:03:09.120Z,40.53
2018-03-25T03:03:42.980Z,40.65
2018-03-25T03:04:16.858Z,41.63
2018-03-25T03:04:50.714Z,42.17
2018-03-25T03:05:24.591Z,40.58
2018-03-25T03:05:58.481Z,41.10
2018-03-25T03:06:32.346Z,40.58
2018-03-25T03:07:06.223Z,41.72
2018-03-25T03:07:40.275Z,41.17
2018-03-25T03:08:14.692Z,41.78
2018-03-25T03:08:48.550Z,41.67
2018-03-25T03:09:22.457Z,44.38
2018-03-25T03:09:57.068Z,41.90
2018-03-25T03:10:31.071Z,40.75
2018-03-25T03:11:06.076Z,39.70
2018-03-25T03:11:41.217Z,41.72
2018-03-25T03:12:15.080Z,40.58
2018-03-25T03:12:48.978Z,42.92
2018-03-25T03:13:22.864Z,43.25
2018-03-25T03:13:56.809Z,42.88
2018-03-25T03:14:31.530Z,42.47
2018-03-25T03:15:05.395Z,43.75
2018-03-25T03:15:39.341Z,42.25
2018-03-25T03:16:13.319Z,42.20
2018-03-25T03:16:47.338Z,42.67
2018-03-25T03:17:21.199Z,40.22
2018-03-25T03:17:55.040Z,41.63
2018-03-25T03:18:29.287Z,41.17
2018-03-25T03:19:03.924Z,42.33
2018-03-25T03:19:37.927Z,41.67
2018-03-25T03:20:11.898Z,41.15
2018-03-25T03:20:45.745Z,42.62
2018-03-25T03:21:19.836Z,41.50
2018-03-25T03:21:53.712Z,41.25
2018-03-25T03:22:27.570Z,40.53
2018-03-25T03:23:01.501Z,40.05
2018-03-25T03:23:35.375Z,40.53
2018-03-25T03:24:09.274Z,41.33
2018-03-25T03:24:43.174Z,40.67
2018-03-25T03:25:17.042Z,41.20
2018-03-25T03:25:50.906Z,42.03
2018-03-25T03:26:25.063Z,40.28
2018-03-25T03:26:58.953Z,41.95
2018-03-25T03:27:32.801Z,43.72
2018-03-25T03:28:06.717Z,41.95
2018-03-25T03:28:40.591Z,43.38
2018-03-25T03:29:14.454Z,41.80
2018-03-25T03:29:48.337Z,42.47
2018-03-25T03:30:22.199Z,44.17
2018-03-25T03:30:56.060Z,44.95
2018-03-25T03:31:30.053Z,40.45
2018-03-25T03:32:04.043Z,42.70
2018-03-25T03:32:37.913Z,43.20
2018-03-25T03:33:11.780Z,39.78
2018-03-25T03:33:45.644Z,43.03
2018-03-25T03:34:19.705Z,42.08
2018-03-25T03:34:53.574Z,42.65
2018-03-25T03:35:27.424Z,43.87
2018-03-25T03:36:01.281Z,41.75
2018-03-25T03:36:35.176Z,42.67
2018-03-25T03:37:09.105Z,42.60
2018-03-25T03:37:42.970Z,41.53
2018-03-25T03:38:16.838Z,43.80
2018-03-25T03:38:50.707Z,44.83
2018-03-25T03:39:24.660Z,43.03
2018-03-25T03:39:58.548Z,42.08
2018-03-25T03:40:32.577Z,42.42
2018-03-25T03:41:06.642Z,39.28
2018-03-25T03:41:40.501Z,42.92
2018-03-25T03:42:14.639Z,40.90
2018-03-25T03:42:48.641Z,42.60
2018-03-25T03:43:22.648Z,42.50
2018-03-25T03:43:56.509Z,42.97
2018-03-25T03:44:30.378Z,41.17
2018-03-25T03:45:04.277Z,42.90
2018-03-25T03:45:38.142Z,42.40
2018-03-25T03:46:12.007Z,42.88
2018-03-25T03:46:45.870Z,41.65
2018-03-25T03:47:19.728Z,41.83
2018-03-25T03:47:53.696Z,40.28
2018-03-25T03:48:27.589Z,41.28
2018-03-25T03:49:01.454Z,43.10
2018-03-25T03:49:35.378Z,44.05
2018-03-25T03:50:09.398Z,43.22
2018-03-25T03:50:43.276Z,42.80
2018-03-25T03:51:17.350Z,41.63
2018-03-25T03:51:51.270Z,41.92
2018-03-25T03:52:25.158Z,42.60
2018-03-25T03:52:59.018Z,42.33
2018-03-25T03:53:32.931Z,40.72
2018-03-25T03:54:06.852Z,41.70
2018-03-25T03:54:40.744Z,41.37
2018-03-25T03:55:14.748Z,43.78
2018-03-25T03:55:48.603Z,41.83
2018-03-25T03:56:22.448Z,41.30
2018-03-25T03:56:56.304Z,42.70
2018-03-25T03:57:30.330Z,40.95
2018-03-25T03:58:04.189Z,42.10
2018-03-25T03:58:38.054Z,42.50
2018-03-25T03:59:11.923Z,40.53
2018-03-25T03:59:45.788Z,40.88
2018-03-25T04:00:19.699Z,41.65
2018-03-25T04:00:53.672Z,40.08
2018-03-25T04:01:27.515Z,42.65
2018-03-25T04:02:01.492Z,42.35
2018-03-25T04:02:35.389Z,41.83
2018-03-25T04:03:09.261Z,43.40
2018-03-25T04:03:43.389Z,42.78
2018-03-25T04:04:17.262Z,42.08
2018-03-25T04:04:51.128Z,42.92
2018-03-25T04:05:25.010Z,44.63
2018-03-25T04:05:59.060Z,41.50
2018-03-25T04:06:32.916Z,43.70
2018-03-25T04:07:06.867Z,41.67
2018-03-25T04:07:41.056Z,38.75
2018-03-25T04:08:14.909Z,43.03
2018-03-25T04:08:48.856Z,41.83
2018-03-25T04:09:23.045Z,40.00
2018-03-25T04:09:57.040Z,41.35
2018-03-25T04:10:30.917Z,41.67
2018-03-25T04:11:05.038Z,40.53
2018-03-25T04:11:38.899Z,40.70
2018-03-25T04:12:12.829Z,40.80
2018-03-25T04:12:46.839Z,40.33
2018-03-25T04:13:20.727Z,42.15
2018-03-25T04:13:54.593Z,40.03
2018-03-25T04:14:28.458Z,40.33
2018-03-25T04:15:02.411Z,40.65
2018-03-25T04:15:36.406Z,40.40
2018-03-25T04:16:10.295Z,42.60
2018-03-25T04:16:44.157Z,40.90
2018-03-25T04:17:18.428Z,40.33
2018-03-25T04:17:52.289Z,43.15
2018-03-25T04:18:26.158Z,41.63
2018-03-25T04:19:00.016Z,41.20
2018-03-25T04:19:33.982Z,40.45
2018-03-25T04:20:07.849Z,40.30
2018-03-25T04:20:41.734Z,41.63
2018-03-25T04:21:15.675Z,41.58
2018-03-25T04:21:49.544Z,39.60
2018-03-25T04:22:23.609Z,40.17
2018-03-25T04:22:57.483Z,39.38
2018-03-25T04:23:31.341Z,39.88
2018-03-25T04:24:05.214Z,40.88
2018-03-25T04:24:39.139Z,39.35
2018-03-25T04:25:12.994Z,40.33
2018-03-25T04:25:47.145Z,40.45
2018-03-25T04:26:21.238Z,40.22
2018-03-25T04:26:55.386Z,38.22
2018-03-25T04:27:29.258Z,40.53
2018-03-25T04:28:03.127Z,40.15
2018-03-25T04:28:37.093Z,38.55
2018-03-25T04:29:10.956Z,39.85
2018-03-25T04:29:45.033Z,39.75
2018-03-25T04:30:18.919Z,38.60
2018-03-25T04:30:52.817Z,39.13
2018-03-25T04:31:26.680Z,42.35
2018-03-25T04:32:00.551Z,40.63
2018-03-25T04:32:34.412Z,39.00
2018-03-25T04:33:08.503Z,37.83
2018-03-25T04:33:42.373Z,40.45
2018-03-25T04:34:16.497Z,41.65
2018-03-25T04:34:50.386Z,37.38
2018-03-25T04:35:24.391Z,38.13
2018-03-25T04:35:58.298Z,38.20
2018-03-25T04:36:32.166Z,40.47
2018-03-25T04:37:06.018Z,39.42
2018-03-25T04:37:39.903Z,39.40
2018-03-25T04:38:13.774Z,39.00
2018-03-25T04:38:47.653Z,39.72
2018-03-25T04:39:21.524Z,40.33
2018-03-25T04:39:55.456Z,38.03
2018-03-25T04:40:29.304Z,39.88
2018-03-25T04:41:03.195Z,36.92
2018-03-25T04:41:37.104Z,40.00
2018-03-25T04:42:10.966Z,39.20
2018-03-25T04:42:44.830Z,36.83
2018-03-25T04:43:18.703Z,40.40
2018-03-25T04:43:52.558Z,36.83
2018-03-25T04:44:26.442Z,39.95
2018-03-25T04:45:00.500Z,37.70
2018-03-25T04:45:34.361Z,39.92
2018-03-25T04:46:08.271Z,38.28
2018-03-25T04:46:42.198Z,38.90
2018-03-25T04:47:16.081Z,39.53
2018-03-25T04:47:50.178Z,39.88
2018-03-25T04:48:24.042Z,40.33
2018-03-25T04:48:57.974Z,40.50
2018-03-25T04:49:31.834Z,38.03
2018-03-25T04:50:05.694Z,39.17
2018-03-25T04:50:39.565Z,39.90
2018-03-25T04:51:13.478Z,39.22
2018-03-25T04:51:47.333Z,38.50
2018-03-25T04:52:21.388Z,38.97
2018-03-25T04:52:55.289Z,38.35
2018-03-25T04:53:29.158Z,40.38
2018-03-25T04:54:03.081Z,38.45
2018-03-25T04:54:36.942Z,36.80
2018-03-25T04:55:10.929Z,37.88
2018-03-25T04:55:44.794Z,36.35
2018-03-25T04:56:18.829Z,36.55
2018-03-25T04:56:52.870Z,40.38
2018-03-25T04:57:26.737Z,37.88
2018-03-25T04:58:00.909Z,38.92
2018-03-25T04:58:34.777Z,39.60
2018-03-25T04:59:08.708Z,39.50
2018-03-25T04:59:43.003Z,38.40
2018-03-25T05:00:16.866Z,39.45
2018-03-25T05:00:50.745Z,39.67
2018-03-25T05:01:24.633Z,38.53
2018-03-25T05:01:58.511Z,38.10
2018-03-25T05:02:32.637Z,40.45
2018-03-25T05:03:06.488Z,38.33
2018-03-25T05:03:40.370Z,40.50
2018-03-25T05:04:14.233Z,39.00
2018-03-25T05:04:48.144Z,38.40
2018-03-25T05:05:22.008Z,39.38
2018-03-25T05:05:55.960Z,39.15
2018-03-25T05:06:29.952Z,38.83
2018-03-25T05:07:03.821Z,38.53
2018-03-25T05:07:37.680Z,40.45
2018-03-25T05:08:11.527Z,38.20
2018-03-25T05:08:45.388Z,41.08
2018-03-25T05:09:19.257Z,39.97
2018-03-25T05:09:53.119Z,38.40
2018-03-25T05:10:26.978Z,38.47
2018-03-25T05:11:00.867Z,38.05
2018-03-25T05:11:34.741Z,42.00
2018-03-25T05:12:08.710Z,41.00
2018-03-25T05:12:42.705Z,40.10
2018-03-25T05:13:16.572Z,40.22
2018-03-25T05:13:50.433Z,42.25
2018-03-25T05:14:24.302Z,37.95
2018-03-25T05:14:58.169Z,39.92
2018-03-25T05:15:32.090Z,40.08
2018-03-25T05:16:05.966Z,42.45
2018-03-25T05:16:40.067Z,41.03
2018-03-25T05:17:13.928Z,41.40
2018-03-25T05:17:48.268Z,40.90
2018-03-25T05:18:22.134Z,41.15
2018-03-25T05:18:55.998Z,41.63
2018-03-25T05:19:29.956Z,41.10
2018-03-25T05:20:03.826Z,41.88
2018-03-25T05:20:37.749Z,42.83
2018-03-25T05:21:11.640Z,42.55
2018-03-25T05:21:45.517Z,42.13
2018-03-25T05:22:19.377Z,42.35
2018-03-25T05:22:53.241Z,40.10
2018-03-25T05:23:27.107Z,41.47
2018-03-25T05:24:01.219Z,41.42
2018-03-25T05:24:35.079Z,40.63
2018-03-25T05:25:08.992Z,42.53
2018-03-25T05:25:43.008Z,41.67
2018-03-25T05:26:16.872Z,40.05
2018-03-25T05:26:50.809Z,39.67
2018-03-25T05:27:24.702Z,43.10
2018-03-25T05:27:58.615Z,42.17
2018-03-25T05:28:32.447Z,41.55
2018-03-25T05:29:06.579Z,42.22
2018-03-25T05:29:40.683Z,40.42
2018-03-25T05:30:14.661Z,39.92
2018-03-25T05:30:48.512Z,40.92
2018-03-25T05:31:22.678Z,40.35
2018-03-25T05:31:56.578Z,40.20
2018-03-25T05:32:30.444Z,41.05
2018-03-25T05:33:04.311Z,42.28
2018-03-25T05:33:38.197Z,41.25
2018-03-25T05:34:12.097Z,42.08
2018-03-25T05:34:45.965Z,40.05
2018-03-25T05:35:19.818Z,41.45
2018-03-25T05:35:53.943Z,41.33
2018-03-25T05:36:27.840Z,42.88
2018-03-25T05:37:01.731Z,40.25
2018-03-25T05:37:35.641Z,40.05
2018-03-25T05:38:09.728Z,42.33
2018-03-25T05:38:43.725Z,42.75
2018-03-25T05:39:17.582Z,41.70
2018-03-25T05:39:51.722Z,43.40
2018-03-25T05:40:25.584Z,39.75
2018-03-25T05:40:59.455Z,41.37
2018-03-25T05:41:33.328Z,41.42
2018-03-25T05:42:07.201Z,40.75
2018-03-25T05:42:41.081Z,40.28
2018-03-25T05:43:15.092Z,42.22
2018-03-25T05:43:48.944Z,39.90
2018-03-25T05:44:22.882Z,40.95
2018-03-25T05:44:56.740Z,39.92
2018-03-25T05:45:30.987Z,38.97
2018-03-25T05:46:04.941Z,41.75
2018-03-25T05:46:39.049Z,42.20
2018-03-25T05:47:13.000Z,40.12
2018-03-25T05:47:46.829Z,41.13
2018-03-25T05:48:20.762Z,41.75
2018-03-25T05:48:54.611Z,39.58
2018-03-25T05:49:28.572Z,42.33
2018-03-25T05:50:02.449Z,41.60
2018-03-25T05:50:36.360Z,39.55
2018-03-25T05:51:10.240Z,41.47
2018-03-25T05:51:44.094Z,40.05
2018-03-25T05:52:17.983Z,41.75
2018-03-25T05:52:52.028Z,40.95
2018-03-25T05:53:26.037Z,40.00
2018-03-25T05:53:59.918Z,38.80
2018-03-25T05:54:33.928Z,41.10
2018-03-25T05:55:07.807Z,40.20
2018-03-25T05:55:41.661Z,40.90
2018-03-25T05:56:15.664Z,40.83
2018-03-25T05:56:49.544Z,41.72
2018-03-25T05:57:23.390Z,41.08
2018-03-25T05:57:57.293Z,40.72
2018-03-25T05:58:31.147Z,39.67
2018-03-25T05:59:05.002Z,41.03
2018-03-25T05:59:38.981Z,40.88
2018-03-25T06:00:12.977Z,39.78
2018-03-25T06:00:46.882Z,40.88
2018-03-25T06:01:20.764Z,39.53
2018-03-25T06:01:54.978Z,40.85
2018-03-25T06:02:28.878Z,42.95
2018-03-25T06:03:02.758Z,41.20
2018-03-25T06:03:36.761Z,40.90
2018-03-25T06:04:10.630Z,43.33
2018-03-25T06:04:44.654Z,39.10
2018-03-25T06:05:18.509Z,39.05
2018-03-25T06:05:52.352Z,40.03
2018-03-25T06:06:26.231Z,40.70
2018-03-25T06:07:00.088Z,41.00
2018-03-25T06:07:33.983Z,41.88
2018-03-25T06:08:07.956Z,39.08
2018-03-25T06:08:41.825Z,39.05
2018-03-25T06:09:15.689Z,41.72
2018-03-25T06:09:49.557Z,39.83
2018-03-25T06:10:23.418Z,39.88
2018-03-25T06:10:57.397Z,40.40
2018-03-25T06:11:31.809Z,41.10
2018-03-25T06:12:05.705Z,38.30
2018-03-25T06:12:39.580Z,39.60
2018-03-25T06:13:13.456Z,38.67
2018-03-25T06:13:47.383Z,39.13
2018-03-25T06:14:21.277Z,40.95
2018-03-25T06:14:55.138Z,39.25
2018-03-25T06:15:29.172Z,41.60
2018-03-25T06:16:03.043Z,41.50
2018-03-25T06:16:37.071Z,38.75
2018-03-25T06:17:10.948Z,40.30
2018-03-25T06:17:45.064Z,42.05
2018-03-25T06:18:18.922Z,41.65
2018-03-25T06:18:52.860Z,39.22
2018-03-25T06:19:26.734Z,37.92
2018-03-25T06:20:00.747Z,38.67
2018-03-25T06:20:34.614Z,36.92
2018-03-25T06:21:08.532Z,38.58
2018-03-25T06:21:42.509Z,38.47
2018-03-25T06:22:16.489Z,38.67
2018-03-25T06:22:50.379Z,38.05
2018-03-25T06:23:24.275Z,38.35
2018-03-25T06:23:58.130Z,41.17
2018-03-25T06:24:32.006Z,37.17
2018-03-25T06:25:05.869Z,39.60
2018-03-25T06:25:39.748Z,38.20
2018-03-25T06:26:13.737Z,39.08
2018-03-25T06:26:47.601Z,39.83
2018-03-25T06:27:21.479Z,38.45
2018-03-25T06:27:55.366Z,37.10
2018-03-25T06:28:29.237Z,39.25
2018-03-25T06:29:03.434Z,39.53
2018-03-25T06:29:37.261Z,40.05
2018-03-25T06:30:11.156Z,40.58
2018-03-25T06:30:45.369Z,40.65
2018-03-25T06:31:19.244Z,39.70
2018-03-25T06:31:53.104Z,39.90
2018-03-25T06:32:26.966Z,40.47
2018-03-25T06:33:00.855Z,40.78
2018-03-25T06:33:34.741Z,40.83
2018-03-25T06:34:08.743Z,38.20
2018-03-25T06:34:42.611Z,38.45
2018-03-25T06:35:16.465Z,38.72
2018-03-25T06:35:50.428Z,40.83
2018-03-25T06:36:24.433Z,38.97
2018-03-25T06:36:58.285Z,41.80
2018-03-25T06:37:32.137Z,39.60
2018-03-25T06:38:06.028Z,38.90
2018-03-25T06:38:39.904Z,42.05
2018-03-25T06:39:13.765Z,38.67
2018-03-25T06:39:47.618Z,39.65
2018-03-25T06:40:21.593Z,38.85
2018-03-25T06:40:55.457Z,40.42
2018-03-25T06:41:29.341Z,41.20
2018-03-25T06:42:03.478Z,37.75
2018-03-25T06:42:37.373Z,38.85
2018-03-25T06:43:11.248Z,38.70
2018-03-25T06:43:45.373Z,39.47
2018-03-25T06:44:19.370Z,38.83
2018-03-25T06:44:53.239Z,35.95
2018-03-25T06:45:27.164Z,37.75
2018-03-25T06:46:01.036Z,37.70
2018-03-25T06:46:34.968Z,38.80
2018-03-25T06:47:08.889Z,37.45
2018-03-25T06:47:42.812Z,40.08
2018-03-25T06:48:16.943Z,38.08
2018-03-25T06:48:50.794Z,35.50
2018-03-25T06:49:24.744Z,39.60
2018-03-25T06:49:58.627Z,39.40
2018-03-25T06:50:32.615Z,37.35
2018-03-25T06:51:06.494Z,37.00
2018-03-25T06:51:40.532Z,39.08
2018-03-25T06:52:15.010Z,37.88
2018-03-25T06:52:49.038Z,36.63
2018-03-25T06:53:22.970Z,36.28
2018-03-25T06:53:56.833Z,37.60
2018-03-25T06:54:30.766Z,37.83
2018-03-25T06:55:04.845Z,37.67
2018-03-25T06:55:38.758Z,37.90
2018-03-25T06:56:12.633Z,37.83
2018-03-25T06:56:46.568Z,37.47
2018-03-25T06:57:20.653Z,36.95
2018-03-25T06:57:54.521Z,36.47
2018-03-25T06:58:28.403Z,35.10
2018-03-25T06:59:02.274Z,35.60
2018-03-25T06:59:36.179Z,34.92
2018-03-25T07:00:10.189Z,37.38
2018-03-25T07:00:44.076Z,37.47
2018-03-25T07:01:17.965Z,38.33
2018-03-25T07:01:51.832Z,37.72
2018-03-25T07:02:25.760Z,35.75
2018-03-25T07:02:59.616Z,36.78
2018-03-25T07:03:33.501Z,33.97
2018-03-25T07:04:07.360Z,36.00
2018-03-25T07:04:41.545Z,35.63
2018-03-25T07:05:15.412Z,35.47
2018-03-25T07:05:49.439Z,35.55
2018-03-25T07:06:23.340Z,36.60
2018-03-25T07:06:57.319Z,36.85
2018-03-25T07:07:31.318Z,38.20
2018-03-25T07:08:05.193Z,35.90
2018-03-25T07:08:39.121Z,37.55
2018-03-25T07:09:13.423Z,37.28
2018-03-25T07:09:47.431Z,35.50
2018-03-25T07:10:21.284Z,36.28
2018-03-25T07:10:55.182Z,35.38
2018-03-25T07:11:29.153Z,34.80
2018-03-25T07:12:03.162Z,34.33
2018-03-25T07:12:37.127Z,35.78
2018-03-25T07:13:11.370Z,36.70
2018-03-25T07:13:45.261Z,36.55
2018-03-25T07:14:19.150Z,35.40
2018-03-25T07:14:53.334Z,34.45
2018-03-25T07:15:27.309Z,36.80
2018-03-25T07:16:01.171Z,34.08
2018-03-25T07:16:35.203Z,34.45
2018-03-25T07:17:09.181Z,35.72
2018-03-25T07:17:43.153Z,32.40